Time;durP1;ratioP1;P1;durP2;ratioP2;P2;SDS_P1;SDS_P2;PMS_P1;PMS_P2;Temp;Humidity;BMP_temperature;BMP_pressure;BME280_temperature;BME280_humidity;BME280_pressure;Samples;Min_cycle;Max_cycle;Signal;HPM_P1;HPM_P2
2022/11/01 00:01:50;;;;;;;9.00;2.90;;;;;;;6.52;46.27;101330.83;106305;1297;21946;-66
2022/11/01 00:04:17;;;;;;;6.50;2.80;;;;;;;6.51;46.36;101329.24;106383;1300;21957;-66
2022/11/01 00:06:43;;;;;;;8.00;2.90;;;;;;;6.49;46.01;101330.57;106368;1300;21955;-66
2022/11/01 00:09:09;;;;;;;6.30;2.80;;;;;;;6.47;46.19;101327.40;105514;1298;1002999;-63
2022/11/01 00:11:35;;;;;;;6.40;2.70;;;;;;;6.46;46.13;101327.39;107406;1300;21959;-63
2022/11/01 00:14:01;;;;;;;5.40;2.70;;;;;;;6.45;46.01;101322.30;106517;1298;21953;-66
2022/11/01 00:16:27;;;;;;;6.50;2.80;;;;;;;6.44;46.21;101322.46;106385;1300;21945;-65
2022/11/01 00:18:57;;;;;;;7.00;2.40;;;;;;;6.43;46.50;101322.79;105574;1300;1002756;-63
2022/11/01 00:21:23;;;;;;;5.00;2.00;;;;;;;6.44;46.29;101322.98;106302;1300;21987;-63
2022/11/01 00:23:49;;;;;;;8.20;2.90;;;;;;;6.47;46.64;101322.17;106331;1298;21955;-66
2022/11/01 00:26:20;;;;;;;6.20;2.70;;;;;;;6.50;46.59;101322.23;106410;1291;21967;-63
2022/11/01 00:28:46;;;;;;;7.50;2.80;;;;;;;6.53;46.70;101322.13;106483;1300;22919;-62
2022/11/01 00:31:13;;;;;;;6.00;2.40;;;;;;;6.51;46.52;101317.55;106469;1300;21953;-63
2022/11/01 00:33:39;;;;;;;6.20;2.20;;;;;;;6.50;46.42;101312.64;106384;1299;21959;-65
2022/11/01 00:36:05;;;;;;;8.20;2.80;;;;;;;6.51;46.45;101315.11;106424;1300;21971;-66
2022/11/01 00:38:32;;;;;;;6.60;2.70;;;;;;;6.50;46.50;101313.52;106382;1300;21961;-66
2022/11/01 00:40:58;;;;;;;5.60;2.60;;;;;;;6.47;46.40;101313.81;106295;1302;21954;-66
2022/11/01 00:43:24;;;;;;;8.70;3.20;;;;;;;6.46;46.32;101314.67;106410;1300;21973;-63
2022/11/01 00:45:50;;;;;;;6.20;2.40;;;;;;;6.45;46.64;101312.89;106351;1300;22771;-65
2022/11/01 00:48:16;;;;;;;6.40;2.80;;;;;;;6.42;46.46;101313.52;106345;1300;21961;-65
2022/11/01 00:50:41;;;;;;;4.60;2.30;;;;;;;6.42;46.46;101311.09;106398;1300;21958;-66
2022/11/01 00:53:08;;;;;;;6.90;2.40;;;;;;;6.39;46.28;101310.16;106264;1300;21953;-65
2022/11/01 00:55:34;;;;;;;6.00;2.60;;;;;;;6.29;46.00;101311.90;106217;1302;21953;-64
2022/11/01 00:58:00;;;;;;;5.80;2.00;;;;;;;6.17;46.00;101310.24;106382;1300;21957;-62
2022/11/01 01:00:27;;;;;;;5.70;2.00;;;;;;;6.04;46.07;101315.55;106530;1299;21933;-63
2022/11/01 01:02:53;;;;;;;5.30;1.90;;;;;;;5.92;45.80;101315.63;106420;1300;21984;-62
2022/11/01 01:05:19;;;;;;;5.60;2.20;;;;;;;5.82;45.79;101318.36;106403;1291;22032;-62
2022/11/01 01:07:47;;;;;;;6.10;2.10;;;;;;;5.68;45.90;101315.96;106551;1287;21968;-64
2022/11/01 01:10:13;;;;;;;6.80;2.60;;;;;;;5.55;45.87;101314.62;106467;1300;21960;-65
2022/11/01 01:12:44;;;;;;;6.70;2.20;;;;;;;5.43;46.04;101315.20;106412;1300;21957;-62
2022/11/01 01:15:10;;;;;;;4.60;1.80;;;;;;;5.39;46.28;101312.33;106285;1300;22000;-62
2022/11/01 01:17:36;;;;;;;6.80;2.20;;;;;;;5.39;46.54;101314.58;106275;1300;22167;-65
2022/11/01 01:20:02;;;;;;;5.20;1.80;;;;;;;5.36;46.09;101316.08;106733;1300;22711;-63
2022/11/01 01:22:29;;;;;;;6.50;2.30;;;;;;;5.31;46.32;101319.63;106515;1299;21961;-64
2022/11/01 01:24:55;;;;;;;5.70;2.50;;;;;;;5.30;46.45;101322.04;105654;1299;1003080;-65
2022/11/01 01:27:21;;;;;;;6.00;2.30;;;;;;;5.29;46.66;101319.05;106333;1300;21965;-64
2022/11/01 01:29:47;;;;;;;7.30;2.40;;;;;;;5.29;46.48;101318.54;106436;1300;21946;-62
2022/11/01 01:32:18;;;;;;;6.70;2.40;;;;;;;5.29;46.50;101316.27;106587;1300;21964;-63
2022/11/01 01:34:44;;;;;;;4.50;2.30;;;;;;;5.31;46.55;101319.79;106394;1299;21956;-65
2022/11/01 01:37:14;;;;;;;5.00;2.30;;;;;;;5.32;46.65;101318.75;106326;1300;21959;-63
2022/11/01 01:39:41;;;;;;;4.70;2.20;;;;;;;5.31;46.52;101319.95;106370;1300;21955;-65
2022/11/01 01:42:16;;;;;;;6.30;2.30;;;;;;;5.32;46.76;101321.04;106412;1300;21951;-64
2022/11/01 01:44:45;;;;;;;7.50;2.00;;;;;;;5.35;46.67;101319.70;106350;1296;21964;-63
2022/11/01 01:47:15;;;;;;;6.70;2.60;;;;;;;5.34;46.73;101317.41;105598;1300;1003155;-64
2022/11/01 01:49:41;;;;;;;7.80;2.30;;;;;;;5.30;46.61;101320.63;106277;1300;21992;-65
2022/11/01 01:52:08;;;;;;;7.00;2.50;;;;;;;5.21;46.41;101325.98;106399;1292;21976;-62
2022/11/01 01:54:36;;;;;;;7.80;2.70;;;;;;;5.13;46.55;101327.89;106334;1297;21946;-62
2022/11/01 01:57:03;;;;;;;10.10;3.50;;;;;;;5.06;46.53;101327.54;106412;1300;21966;-65
2022/11/01 01:59:29;;;;;;;6.30;2.80;;;;;;;5.00;46.70;101326.19;106362;1299;21949;-62
2022/11/01 02:01:56;;;;;;;10.20;2.80;;;;;;;4.97;46.75;101328.00;106297;1300;21953;-62
2022/11/01 02:04:38;;;;;;;8.20;2.60;;;;;;;4.94;46.81;101328.78;106144;1300;21949;-62
2022/11/01 02:07:04;;;;;;;6.90;2.60;;;;;;;4.91;46.81;101327.31;106473;1299;22077;-64
2022/11/01 02:09:32;;;;;;;5.60;2.20;;;;;;;4.94;47.18;101326.52;106475;1298;21953;-63
2022/11/01 02:11:59;;;;;;;7.10;2.10;;;;;;;5.00;47.20;101328.76;106628;1300;21974;-63
2022/11/01 02:14:24;;;;;;;8.40;2.60;;;;;;;5.03;46.97;101331.29;105651;1300;1002622;-62
2022/11/01 02:17:02;;;;;;;7.20;2.80;;;;;;;5.06;46.94;101331.52;106333;1301;22426;-61
2022/11/01 02:20:02;;;;;;;6.70;2.50;;;;;;;5.04;46.89;101329.40;105424;1300;1002894;-64
2022/11/01 02:22:38;;;;;;;7.60;2.80;;;;;;;4.99;46.72;101328.92;106178;1300;21965;-62
2022/11/01 02:25:25;;;;;;;7.60;3.30;;;;;;;4.94;46.68;101330.54;106185;1300;21963;-64
2022/11/01 02:28:39;;;;;;;8.10;2.60;;;;;;;4.89;46.68;101330.39;106311;1300;21965;-64
2022/11/01 02:31:43;;;;;;;6.80;2.80;;;;;;;4.85;46.83;101336.54;106139;1300;21958;-65
2022/11/01 02:34:34;;;;;;;6.00;2.50;;;;;;;4.80;46.90;101342.14;106131;1303;21967;-63
2022/11/01 02:37:13;;;;;;;6.30;2.50;;;;;;;4.78;46.91;101345.05;105401;1300;1002589;-65
2022/11/01 02:39:45;;;;;;;6.50;2.20;;;;;;;4.72;46.65;101348.20;106290;1298;22001;-63
2022/11/01 02:42:15;;;;;;;7.90;3.20;;;;;;;4.61;46.51;101348.09;106285;1300;23668;-62
2022/11/01 02:44:44;;;;;;;7.90;2.70;;;;;;;4.54;46.77;101349.98;106326;1300;21957;-63
2022/11/01 02:47:11;;;;;;;6.10;2.60;;;;;;;4.51;46.83;101347.63;106261;1300;21957;-63
2022/11/01 02:49:41;;;;;;;7.10;2.20;;;;;;;4.54;47.14;101350.66;106305;1300;21968;-63
2022/11/01 02:52:12;;;;;;;6.40;2.60;;;;;;;4.57;47.25;101352.84;106370;1300;21948;-63
2022/11/01 02:54:39;;;;;;;6.00;2.50;;;;;;;4.59;47.11;101350.48;106503;1300;21960;-65
2022/11/01 02:57:19;;;;;;;5.60;2.60;;;;;;;4.64;47.32;101351.98;106390;1300;21948;-64
2022/11/01 02:59:47;;;;;;;5.10;2.80;;;;;;;4.70;47.51;101353.54;106220;1300;21995;-65
2022/11/01 03:02:20;;;;;;;8.00;3.10;;;;;;;4.70;47.22;101351.43;106378;1292;21948;-63
2022/11/01 03:04:46;;;;;;;8.40;2.70;;;;;;;4.66;47.09;101351.32;106346;1300;21955;-64
2022/11/01 03:07:13;;;;;;;7.20;2.90;;;;;;;4.59;47.23;101353.95;106301;1299;22095;-63
2022/11/01 03:09:38;;;;;;;5.80;2.80;;;;;;;4.56;47.21;101355.59;106246;1300;21971;-64
2022/11/01 03:12:24;;;;;;;7.40;2.90;;;;;;;4.54;47.32;101355.34;106277;1300;21991;-64
2022/11/01 03:14:53;;;;;;;11.00;2.90;;;;;;;4.56;47.52;101356.97;106266;1300;21940;-64
2022/11/01 03:17:45;;;;;;;7.20;2.40;;;;;;;4.60;47.60;101358.65;106257;1299;23710;-63
2022/11/01 03:20:15;;;;;;;6.80;2.30;;;;;;;4.64;47.60;101362.41;106242;1300;21961;-64
2022/11/01 03:22:48;;;;;;;5.70;2.30;;;;;;;4.65;47.54;101362.25;106363;1298;21956;-62
2022/11/01 03:25:38;;;;;;;6.00;2.60;;;;;;;4.67;47.40;101361.09;106345;1300;21966;-62
2022/11/01 03:28:20;;;;;;;6.50;2.40;;;;;;;4.64;47.21;101360.48;106373;1297;22004;-62
2022/11/01 03:30:55;;;;;;;7.20;2.90;;;;;;;4.59;47.34;101362.27;106341;1297;21972;-62
2022/11/01 03:33:21;;;;;;;9.30;2.60;;;;;;;4.56;47.42;101365.83;106259;1298;21958;-64
2022/11/01 03:35:48;;;;;;;7.40;3.40;;;;;;;4.56;47.72;101366.19;106208;1300;21991;-64
2022/11/01 03:38:19;;;;;;;6.80;2.50;;;;;;;4.59;47.73;101368.02;106331;1299;21944;-64
2022/11/01 03:40:53;;;;;;;7.60;2.70;;;;;;;4.64;47.44;101369.87;106275;1300;21998;-62
2022/11/01 03:43:20;;;;;;;5.10;2.20;;;;;;;4.67;47.52;101366.14;106333;1300;21956;-63
2022/11/01 03:45:45;;;;;;;7.90;2.90;;;;;;;4.70;47.47;101370.05;104805;1298;1003253;-64
2022/11/01 03:48:11;;;;;;;8.90;2.40;;;;;;;4.74;47.56;101369.81;106309;1300;21960;-63
2022/11/01 03:50:39;;;;;;;5.20;2.20;;;;;;;4.76;47.45;101372.84;106360;1300;21954;-65
2022/11/01 03:53:06;;;;;;;7.40;2.30;;;;;;;4.72;47.68;101370.81;106357;1300;21979;-62
2022/11/01 03:55:32;;;;;;;11.80;2.90;;;;;;;4.71;47.77;101370.96;106353;1300;22110;-61
2022/11/01 03:57:58;;;;;;;7.40;2.50;;;;;;;4.70;47.75;101377.01;106343;1300;21965;-62
2022/11/01 04:00:30;;;;;;;10.00;2.70;;;;;;;4.66;47.64;101375.34;106331;1300;21952;-62
2022/11/01 04:02:57;;;;;;;8.90;2.60;;;;;;;4.65;47.97;101376.34;106410;1297;22000;-64
2022/11/01 04:05:28;;;;;;;12.60;2.50;;;;;;;4.74;48.18;101374.67;106254;1300;21952;-64
2022/11/01 04:07:59;;;;;;;7.70;2.20;;;;;;;4.84;48.25;101377.40;106356;1297;22021;-66
2022/11/01 04:10:27;;;;;;;8.30;2.70;;;;;;;4.88;47.91;101378.55;106373;1300;21971;-62
2022/11/01 04:12:53;;;;;;;4.30;2.00;;;;;;;4.91;47.94;101376.36;106500;1300;21915;-65
2022/11/01 04:20:58;;;;;;;10.80;2.10;;;;;;;4.97;47.84;101380.01;107017;1300;22031;-63
2022/11/01 04:23:26;;;;;;;6.20;2.30;;;;;;;4.99;47.70;101379.73;106383;1295;23644;-65
2022/11/01 04:25:52;;;;;;;6.20;2.30;;;;;;;5.02;47.70;101381.89;106382;1300;24020;-62
2022/11/01 04:28:18;;;;;;;6.80;2.80;;;;;;;5.04;47.53;101383.66;106365;1298;21971;-63
2022/11/01 04:30:44;;;;;;;6.80;2.60;;;;;;;5.05;47.64;101383.19;106306;1300;21923;-64
2022/11/01 04:33:10;;;;;;;6.20;2.30;;;;;;;5.07;47.66;101379.40;106377;1300;21989;-64
2022/11/01 04:35:39;;;;;;;6.80;2.90;;;;;;;5.10;47.63;101383.48;106381;1297;21969;-65
2022/11/01 04:38:06;;;;;;;7.00;2.30;;;;;;;5.12;47.68;101385.95;106464;1300;21961;-64
2022/11/01 04:40:33;;;;;;;6.20;2.90;;;;;;;5.11;47.57;101387.15;106332;1297;22017;-65
2022/11/01 04:42:58;;;;;;;12.30;2.60;;;;;;;5.18;47.69;101388.38;106178;1300;21969;-62
2022/11/01 04:45:25;;;;;;;6.70;2.30;;;;;;;5.23;47.44;101389.20;106246;1300;21964;-67
2022/11/01 04:48:05;;;;;;;9.10;2.70;;;;;;;5.19;47.74;101391.35;106360;1299;21949;-64
2022/11/01 04:50:33;;;;;;;10.70;2.80;;;;;;;5.16;47.76;101387.81;106382;1300;23702;-65
2022/11/01 04:52:59;;;;;;;8.90;2.90;;;;;;;5.16;47.80;101387.64;106459;1296;21961;-63
2022/11/01 04:55:26;;;;;;;16.70;2.90;;;;;;;5.16;47.87;101389.36;106326;1300;22429;-66
2022/11/01 04:57:52;;;;;;;13.50;2.70;;;;;;;5.20;48.01;101385.66;106410;1299;21959;-66
2022/11/01 05:00:18;;;;;;;9.20;2.90;;;;;;;5.27;48.25;101389.65;106302;1297;21947;-61
2022/11/01 05:02:43;;;;;;;10.60;3.00;;;;;;;5.33;48.29;101389.46;106193;1299;23657;-61
2022/11/01 05:05:10;;;;;;;12.20;3.60;;;;;;;5.39;48.20;101389.60;106281;1300;21966;-64
2022/11/01 05:07:36;;;;;;;7.30;3.40;;;;;;;5.44;48.21;101393.91;106350;1300;21968;-61
2022/11/01 05:10:02;;;;;;;12.40;3.30;;;;;;;5.48;48.07;101395.92;106054;1300;348089;-61
2022/11/01 05:12:33;;;;;;;9.50;3.10;;;;;;;5.54;48.17;101391.88;106269;1300;21948;-63
2022/11/01 05:14:59;;;;;;;10.10;2.70;;;;;;;5.58;48.23;101390.42;106302;1300;21950;-61
2022/11/01 05:17:27;;;;;;;11.00;3.00;;;;;;;5.63;48.21;101387.94;106929;1300;21957;-67
2022/11/01 05:19:53;;;;;;;5.40;2.50;;;;;;;5.70;48.32;101389.84;106512;1300;21999;-62
2022/11/01 05:22:19;;;;;;;8.40;3.00;;;;;;;5.77;48.24;101389.66;106361;1300;21959;-64
2022/11/01 05:24:45;;;;;;;6.60;2.80;;;;;;;5.83;48.56;101388.41;106456;1300;21974;-62
2022/11/01 05:27:11;;;;;;;7.20;2.90;;;;;;;5.91;48.39;101388.41;106332;1297;21966;-62
2022/11/01 05:29:37;;;;;;;12.60;2.90;;;;;;;5.98;48.36;101384.37;105555;1300;1002513;-61
2022/11/01 05:32:03;;;;;;;9.10;3.60;;;;;;;6.04;48.50;101385.94;105566;1300;1003139;-66
2022/11/01 05:34:31;;;;;;;7.90;3.40;;;;;;;6.12;48.52;101390.48;105639;1294;1002380;-66
2022/11/01 05:36:58;;;;;;;7.40;2.60;;;;;;;6.21;48.74;101395.73;106337;1300;21968;-66
2022/11/01 05:39:23;;;;;;;7.30;3.10;;;;;;;6.31;48.88;101399.61;106361;1300;21964;-62
2022/11/01 05:41:50;;;;;;;6.40;3.30;;;;;;;6.41;48.66;101404.19;106282;1300;21998;-66
2022/11/01 05:44:16;;;;;;;8.10;2.90;;;;;;;6.55;48.83;101404.65;104843;1300;1003036;-61
2022/11/01 05:46:43;;;;;;;5.90;2.40;;;;;;;6.66;48.90;101405.39;106233;1300;21993;-61
2022/11/01 05:49:09;;;;;;;6.80;3.20;;;;;;;6.78;49.00;101405.64;106327;1300;21981;-61
2022/11/01 05:51:38;;;;;;;7.50;3.30;;;;;;;6.91;48.52;101406.04;106282;1300;21974;-65
2022/11/01 05:54:03;;;;;;;7.80;4.10;;;;;;;7.00;48.65;101409.20;106376;1300;21974;-60
2022/11/01 05:56:29;;;;;;;8.10;3.50;;;;;;;7.10;48.99;101411.13;106326;1300;21953;-65
2022/11/01 05:58:55;;;;;;;9.30;4.60;;;;;;;7.22;49.11;101409.24;106246;1300;21968;-64
2022/11/01 06:01:20;;;;;;;10.30;4.30;;;;;;;7.37;49.29;101409.15;106330;1300;21998;-66
2022/11/01 06:03:50;;;;;;;11.40;4.20;;;;;;;7.55;49.39;101410.52;106304;1300;21965;-61
2022/11/01 06:06:17;;;;;;;11.90;4.60;;;;;;;7.71;49.32;101410.23;106310;1300;21957;-65
2022/11/01 06:08:43;;;;;;;9.00;4.60;;;;;;;7.85;49.66;101415.70;106385;1300;23720;-61
2022/11/01 06:11:10;;;;;;;11.10;4.40;;;;;;;8.05;49.69;101408.84;106397;1299;21946;-61
2022/11/01 06:13:36;;;;;;;12.40;4.50;;;;;;;8.26;49.74;101407.39;106383;1300;21968;-65
2022/11/01 06:16:03;;;;;;;10.20;4.30;;;;;;;8.45;49.40;101409.05;106305;1300;21962;-61
2022/11/01 06:18:30;;;;;;;11.20;5.00;;;;;;;8.62;49.73;101404.73;106289;1300;22006;-61
2022/11/01 06:20:58;;;;;;;11.10;4.30;;;;;;;8.84;49.94;101403.58;106356;1298;21955;-66
2022/11/01 06:23:23;;;;;;;11.50;4.40;;;;;;;9.06;49.77;101398.92;106370;1300;23105;-65
2022/11/01 06:25:49;;;;;;;12.60;4.70;;;;;;;9.27;49.55;101399.65;106233;1300;21967;-66
2022/11/01 06:28:15;;;;;;;12.50;5.40;;;;;;;9.45;49.31;101397.71;106224;1298;23605;-66
2022/11/01 06:30:42;;;;;;;10.20;4.70;;;;;;;9.60;49.31;101396.44;106284;1300;21965;-62
2022/11/01 06:33:09;;;;;;;10.80;4.30;;;;;;;9.79;49.42;101398.14;106433;1300;21956;-62
2022/11/01 06:35:36;;;;;;;11.70;4.60;;;;;;;10.00;49.44;101394.44;106375;1300;21983;-62
2022/11/01 06:38:07;;;;;;;11.90;5.20;;;;;;;10.21;49.18;101391.58;106366;1300;21965;-66
2022/11/01 06:40:35;;;;;;;12.20;4.90;;;;;;;10.42;49.20;101391.70;106236;1298;21968;-62
2022/11/01 06:43:03;;;;;;;9.40;5.50;;;;;;;10.62;49.19;101391.27;106390;1300;21949;-66
2022/11/01 06:45:30;;;;;;;14.00;6.70;;;;;;;10.83;49.21;101393.09;106329;1300;21956;-63
2022/11/01 06:47:58;;;;;;;12.90;6.70;;;;;;;11.03;49.13;101393.31;106216;1291;21959;-62
2022/11/01 06:50:25;;;;;;;14.80;7.80;;;;;;;11.26;48.90;101388.43;106289;1300;21943;-62
2022/11/01 06:52:56;;;;;;;19.50;8.60;;;;;;;11.44;49.14;101387.74;106310;1300;21961;-63
2022/11/01 06:55:22;;;;;;;18.10;7.50;;;;;;;11.64;49.18;101389.68;106242;1300;21994;-64
2022/11/01 06:57:58;;;;;;;16.70;8.10;;;;;;;11.82;48.91;101392.46;106362;1300;21971;-64
2022/11/01 07:00:24;;;;;;;17.90;7.30;;;;;;;12.05;49.07;101387.53;106378;1300;23644;-64
2022/11/01 07:03:04;;;;;;;13.90;7.20;;;;;;;12.34;49.06;101387.10;106390;1298;21958;-63
2022/11/01 07:05:32;;;;;;;16.50;8.30;;;;;;;12.67;48.71;101386.09;106394;1300;21961;-64
2022/11/01 07:07:59;;;;;;;14.30;7.40;;;;;;;12.98;48.50;101383.64;106278;1300;21967;-65
2022/11/01 07:10:25;;;;;;;14.90;7.70;;;;;;;13.26;48.61;101383.09;106265;1300;21951;-64
2022/11/01 07:12:59;;;;;;;16.90;8.10;;;;;;;13.48;48.57;101382.24;106178;1300;22001;-64
2022/11/01 07:15:26;;;;;;;14.00;7.90;;;;;;;13.67;48.03;101380.14;108431;1299;21935;-65
2022/11/01 07:17:56;;;;;;;14.10;7.60;;;;;;;13.88;47.78;101381.89;106962;1300;21957;-63
2022/11/01 07:20:22;;;;;;;;;;;;;;;14.11;47.54;101382.52;106455;1300;21955;-64
2022/11/01 07:23:02;;;;;;;13.80;6.00;;;;;;;14.35;46.94;101379.77;106494;1298;21968;-66
2022/11/01 07:25:28;;;;;;;14.20;5.70;;;;;;;14.59;46.79;101377.90;106471;1300;23632;-66
2022/11/01 07:27:54;;;;;;;10.90;5.30;;;;;;;14.77;46.46;101377.52;106193;1301;21952;-64
2022/11/01 07:30:21;;;;;;;10.30;5.30;;;;;;;14.91;46.23;101378.54;106816;1300;21963;-64
2022/11/01 07:32:47;;;;;;;13.20;5.20;;;;;;;15.09;45.86;101375.10;106217;1300;21971;-62
2022/11/01 07:35:14;;;;;;;9.40;4.50;;;;;;;15.23;45.43;101374.55;106295;1300;21963;-66
2022/11/01 07:37:40;;;;;;;10.30;5.20;;;;;;;15.36;44.82;101369.20;106344;1299;21958;-67
2022/11/01 07:40:06;;;;;;;13.30;5.10;;;;;;;15.48;44.21;101372.90;106443;1295;21937;-65
2022/11/01 07:42:33;;;;;;;9.50;4.60;;;;;;;15.59;44.19;101367.41;106598;1300;21960;-64
2022/11/01 07:44:59;;;;;;;6.60;3.00;;;;;;;15.71;43.46;101366.14;106353;1300;24320;-66
2022/11/01 07:47:26;;;;;;;8.00;3.80;;;;;;;15.79;42.60;101362.11;106324;1300;21952;-65
2022/11/01 07:49:53;;;;;;;8.40;3.40;;;;;;;15.79;42.64;101359.80;106312;1300;21952;-63
2022/11/01 07:52:19;;;;;;;7.40;2.90;;;;;;;15.86;42.55;101358.27;106236;1300;21960;-69
2022/11/01 07:54:45;;;;;;;5.10;2.80;;;;;;;15.89;42.38;101357.52;106381;1298;21954;-64
2022/11/01 07:57:12;;;;;;;7.10;3.60;;;;;;;15.97;42.23;101354.73;106375;1300;21956;-66
2022/11/01 07:59:38;;;;;;;8.00;3.80;;;;;;;16.06;41.29;101352.41;106309;1300;21974;-65
2022/11/01 08:02:04;;;;;;;12.70;3.40;;;;;;;16.14;41.77;101353.51;106198;1300;21950;-65
2022/11/01 08:04:31;;;;;;;7.20;3.80;;;;;;;16.26;41.59;101353.44;106420;1300;21956;-63
2022/11/01 08:06:57;;;;;;;9.10;3.50;;;;;;;16.35;41.56;101347.77;106329;1300;21954;-63
2022/11/01 08:09:23;;;;;;;6.50;2.90;;;;;;;16.51;41.63;101350.08;106580;1300;22013;-65
2022/11/01 08:11:49;;;;;;;6.00;3.00;;;;;;;16.72;41.45;101349.45;106269;1300;21957;-67
2022/11/01 08:14:15;;;;;;;8.90;3.30;;;;;;;16.89;41.28;101345.70;108370;1300;21899;-67
2022/11/01 08:16:42;;;;;;;7.90;3.70;;;;;;;17.03;41.04;101347.17;107495;1300;23070;-66
2022/11/01 08:19:09;;;;;;;7.10;3.20;;;;;;;17.10;40.75;101345.42;106321;1299;21952;-63
2022/11/01 08:21:35;;;;;;;9.40;4.50;;;;;;;17.20;40.83;101343.75;106322;1300;21990;-63
2022/11/01 08:24:00;;;;;;;6.70;3.00;;;;;;;17.24;40.71;101345.79;106268;1300;21935;-65
2022/11/01 08:26:27;;;;;;;8.60;3.80;;;;;;;17.37;40.68;101344.77;106304;1299;21956;-63
2022/11/01 08:28:53;;;;;;;6.90;3.20;;;;;;;17.66;40.21;101343.84;106357;1300;21958;-65
2022/11/01 08:31:19;;;;;;;10.00;4.20;;;;;;;17.81;40.39;101341.48;106243;1300;22044;-62
2022/11/01 08:33:46;;;;;;;7.60;2.90;;;;;;;17.91;39.71;101339.79;106434;1300;21960;-66
2022/11/01 08:36:12;;;;;;;6.10;2.70;;;;;;;17.93;39.61;101340.44;106666;1300;22011;-63
2022/11/01 08:38:38;;;;;;;7.20;3.10;;;;;;;17.96;39.37;101335.38;106313;1298;21972;-65
2022/11/01 08:41:08;;;;;;;7.50;3.50;;;;;;;18.05;39.12;101333.39;106320;1298;23060;-63
2022/11/01 08:43:35;;;;;;;7.60;3.20;;;;;;;18.28;39.21;101334.86;106343;1300;24378;-63
2022/11/01 08:46:04;;;;;;;5.80;2.80;;;;;;;18.63;39.42;101331.70;106313;1299;23413;-65
2022/11/01 08:48:31;;;;;;;4.80;2.20;;;;;;;18.80;38.18;101326.71;108413;1300;21791;-66
2022/11/01 08:50:56;;;;;;;6.30;2.20;;;;;;;18.80;38.11;101326.20;106970;1300;21968;-66
2022/11/01 08:53:23;;;;;;;5.40;2.60;;;;;;;18.84;38.49;101324.81;106283;1300;21975;-68
2022/11/01 08:55:56;;;;;;;6.10;2.50;;;;;;;18.95;38.04;101323.43;106397;1300;23589;-69
2022/11/01 08:58:22;;;;;;;5.20;2.50;;;;;;;19.06;36.93;101323.63;106196;1300;21952;-64
2022/11/01 09:00:48;;;;;;;6.60;2.80;;;;;;;19.15;37.75;101319.58;106413;1300;21953;-64
2022/11/01 09:03:14;;;;;;;5.50;2.40;;;;;;;19.33;37.77;101315.79;106463;1300;21982;-64
2022/11/01 09:05:40;;;;;;;4.60;2.30;;;;;;;19.59;37.92;101314.71;106299;1297;21958;-69
2022/11/01 09:08:06;;;;;;;7.70;2.60;;;;;;;19.77;37.62;101309.64;106259;1300;23042;-69
2022/11/01 09:10:33;;;;;;;5.80;2.30;;;;;;;19.94;37.04;101307.96;106160;1303;21964;-64
2022/11/01 09:12:59;;;;;;;5.40;2.90;;;;;;;20.15;37.12;101304.52;106388;1300;21954;-68
2022/11/01 09:15:26;;;;;;;6.80;2.70;;;;;;;20.24;36.98;101304.23;106432;1298;21956;-70
2022/11/01 09:17:52;;;;;;;3.60;1.90;;;;;;;20.30;36.69;101300.23;106297;1297;21995;-67
2022/11/01 09:20:18;;;;;;;4.10;2.00;;;;;;;20.30;36.26;101295.79;106195;1300;21968;-64
2022/11/01 09:22:44;;;;;;;4.70;2.00;;;;;;;20.21;35.99;101294.52;106315;1300;21959;-69
2022/11/01 09:25:11;;;;;;;10.00;2.10;;;;;;;20.18;35.78;101294.80;106275;1300;21962;-64
2022/11/01 09:27:37;;;;;;;4.80;2.30;;;;;;;20.19;35.76;101293.70;106281;1300;21971;-64
2022/11/01 09:30:04;;;;;;;5.80;2.90;;;;;;;20.15;35.98;101290.09;106339;1300;21967;-66
2022/11/01 09:32:30;;;;;;;6.10;2.50;;;;;;;20.05;35.13;101291.16;106259;1298;21941;-64
2022/11/01 09:34:57;;;;;;;7.80;2.00;;;;;;;19.90;35.43;101295.81;106322;1300;21958;-64
2022/11/01 09:37:23;;;;;;;6.00;2.40;;;;;;;19.81;34.77;101291.48;106293;1300;22437;-64
2022/11/01 09:39:50;;;;;;;3.70;2.00;;;;;;;19.79;35.45;101286.77;106323;1300;21943;-64
2022/11/01 09:42:34;;;;;;;6.20;2.10;;;;;;;19.88;35.87;101287.88;106329;1300;21956;-69
2022/11/01 09:45:06;;;;;;;4.50;1.90;;;;;;;20.06;35.82;101284.37;106217;1300;21940;-62
2022/11/01 09:47:32;;;;;;;5.00;2.10;;;;;;;20.25;35.95;101282.95;106311;1300;21956;-66
2022/11/01 09:50:37;;;;;;;6.20;2.50;;;;;;;20.38;35.32;101283.73;106248;1300;21956;-65
2022/11/01 09:53:06;;;;;;;3.50;2.00;;;;;;;20.35;34.98;101281.85;105660;1305;21962;-65
2022/11/01 09:55:45;;;;;;;7.40;2.40;;;;;;;20.24;34.71;101277.82;106166;1297;21955;-66
2022/11/01 09:58:35;;;;;;;7.00;2.80;;;;;;;20.23;35.27;101279.13;106300;1300;21962;-67
2022/11/01 10:01:20;;;;;;;;;;;;;;;20.34;34.73;101276.35;106339;1300;21950;-64
2022/11/01 10:04:14;;;;;;;2.80;1.30;;;;;;;20.51;34.64;101274.80;106306;1300;22417;-66
2022/11/01 10:06:45;;;;;;;3.90;1.50;;;;;;;20.75;34.33;101269.41;106408;1300;21953;-67
2022/11/01 10:09:57;;;;;;;4.30;1.60;;;;;;;20.88;34.02;101267.13;106327;1300;21946;-68
2022/11/01 10:12:48;;;;;;;4.80;1.70;;;;;;;20.91;33.37;101265.39;106320;1300;21998;-66
2022/11/01 10:15:32;;;;;;;4.70;2.00;;;;;;;21.10;33.28;101265.70;106226;1300;21958;-64
2022/11/01 10:18:13;;;;;;;4.70;1.70;;;;;;;21.34;34.07;101266.46;106283;1300;21950;-67
2022/11/01 10:20:40;;;;;;;3.10;1.40;;;;;;;21.43;33.81;101263.36;106319;1300;21952;-63
2022/11/01 10:23:06;;;;;;;3.70;1.90;;;;;;;21.59;33.83;101261.11;106245;1303;21956;-65
2022/11/01 10:25:32;;;;;;;3.20;1.40;;;;;;;21.61;33.62;101264.02;106226;1303;21972;-64
2022/11/01 10:28:01;;;;;;;4.70;1.60;;;;;;;21.59;33.34;101261.79;106295;1302;21957;-67
2022/11/01 10:30:28;;;;;;;4.50;2.10;;;;;;;21.49;33.62;101259.72;106266;1300;21966;-64
2022/11/01 10:33:01;;;;;;;4.30;1.50;;;;;;;21.52;33.43;101256.02;107687;1300;21957;-68
2022/11/01 10:35:39;;;;;;;5.30;2.20;;;;;;;21.72;33.33;101256.05;106229;1300;21968;-65
2022/11/01 10:38:07;;;;;;;5.00;1.80;;;;;;;21.81;33.02;101249.39;106261;1302;22063;-65
2022/11/01 10:40:47;;;;;;;4.40;1.90;;;;;;;21.80;33.16;101244.96;106338;1300;21954;-64
2022/11/01 10:43:14;;;;;;;5.30;2.10;;;;;;;21.77;33.13;101246.02;106483;1300;21965;-64
2022/11/01 10:45:42;;;;;;;4.10;1.70;;;;;;;21.80;32.49;101244.45;106427;1299;21955;-63
2022/11/01 10:48:14;;;;;;;5.20;1.60;;;;;;;21.92;33.08;101241.59;106222;1300;21995;-63
2022/11/01 10:50:40;;;;;;;5.90;1.50;;;;;;;22.04;32.81;101243.72;106234;1300;21948;-63
2022/11/01 10:53:10;;;;;;;5.60;1.50;;;;;;;22.04;33.28;101242.48;106223;1302;21965;-69
2022/11/01 10:55:46;;;;;;;3.30;1.80;;;;;;;22.10;32.97;101240.92;106581;1300;21972;-63
2022/11/01 10:58:19;;;;;;;4.00;1.60;;;;;;;22.10;31.74;101237.02;106489;1300;21969;-68
2022/11/01 11:00:45;;;;;;;6.70;1.80;;;;;;;22.05;31.56;101238.30;106362;1300;21951;-64
2022/11/01 11:03:22;;;;;;;3.60;1.80;;;;;;;22.14;31.14;101235.55;106307;1300;21970;-68
2022/11/01 11:05:50;;;;;;;5.40;1.90;;;;;;;22.19;30.81;101233.54;106272;1300;21957;-64
2022/11/01 11:08:19;;;;;;;4.00;1.90;;;;;;;22.05;31.62;101234.19;106351;1300;21956;-63
2022/11/01 11:10:45;;;;;;;4.70;1.70;;;;;;;21.91;31.43;101231.79;106258;1303;21956;-68
2022/11/01 11:13:14;;;;;;;5.60;1.80;;;;;;;21.88;31.59;101230.86;106227;1300;21986;-68
2022/11/01 11:15:51;;;;;;;3.70;1.70;;;;;;;21.82;30.89;101227.90;106344;1300;21965;-64
2022/11/01 11:18:26;;;;;;;4.80;2.40;;;;;;;21.84;31.62;101227.48;106315;1300;22020;-64
2022/11/01 11:20:58;;;;;;;6.20;2.70;;;;;;;22.01;31.75;101224.00;106575;1300;21956;-68
2022/11/01 11:23:26;;;;;;;7.10;2.20;;;;;;;22.22;31.83;101221.44;106235;1300;21962;-63
2022/11/01 11:25:52;;;;;;;3.20;1.60;;;;;;;22.40;32.58;101220.05;106348;1300;21965;-71
2022/11/01 11:28:25;;;;;;;5.40;2.10;;;;;;;22.49;31.79;101219.28;106246;1303;23634;-66
2022/11/01 11:30:51;;;;;;;3.90;1.90;;;;;;;22.39;32.10;101214.52;106313;1301;21956;-67
2022/11/01 11:33:17;;;;;;;5.70;1.80;;;;;;;22.40;32.39;101212.68;106298;1298;21955;-68
2022/11/01 11:35:54;;;;;;;4.90;2.60;;;;;;;22.53;31.26;101206.73;106168;1297;21950;-66